Fredericksburg, VA

1:36 AM EST on March 05, 2015 (GMT -0500)
Spotswood Estates | Change Station
CLOSE
Current Station
Personal Weather Station
Location: Fredericksburg, VA
Elevation: 240 ft
Nearby Weather Stations
Active Advisory: Winter Storm Warning

Elev 240 ft 38.26 °N, 77.49 °W | Updated 2 seconds ago

Light Rain
Light Rain
42.7 °F
Feels Like 38 °F
N
8.0
Wind Variable Wind from NE
Gusts 11.0 mph

Today
High -- | Low -- °F
--% Chance of Precip.
Yesterday
High -- | Low -- °F
Precip. -- in
6:36 AM 6:07 PM
Full, 100% visible
Pressure 29.97 in
Visibility 7.0 miles
Clouds Mostly Cloudy 900 ft
Overcast 1400 ft
Windchill 38 °F
Dew Point 41 °F
Humidity 95%
Rainfall in
Snow Depth Not available.
UV 0 out of 12
Pollen .70 out of 12
Air Quality Not available.
Flu Activity Not available.
METAR KEZF 050615Z AUTO 01008KT 7SM -RA BKN009 OVC014 07/07 A2997 RMK AO2 P0001 T00710071

More Conditions Fewer Conditions

Pressure 29.97 in
Visibility 7.0 miles
Clouds Mostly Cloudy 900 ft
Overcast 1400 ft
Windchill 38 °F
Dew Point 41 °F
Humidity 95%
Rainfall in
Snow Depth Not available.
UV 0 out of 12
Pollen .70 out of 12
Air Quality Not available.
Flu Activity Not available.
METAR KEZF 050615Z AUTO 01008KT 7SM -RA BKN009 OVC014 07/07 A2997 RMK AO2 P0001 T00710071

More Conditions Fewer Conditions

10-Day Weather Forecast

Almanac

Astronomy

Mar. 05, 2015 Rise Set
Actual Time
Civil Twilight
Nautical Twilight
Astronomical Twilight
Moon
Length of Visible Light
Length of Day
Tomorrow will be .
, % of the Moon is Illuminated

Today's Extremes

State Highs State Lows

Community

WunderPhotos

Upload Photos

1,802,689 photos uploaded!

WunderBlogs® & News

Nearby

Air Quality

  Air Quality AQ Index Pollutant
Not available.

Snow Depth

Station Depth Elevation

Earthquake Activity

City Distance Mag. Time & Date
Minimum magnitude displayed is 2.5.

Coastal Water Temperatures

Place Temperature

Nearby Weather Stations

Winter Storm Warning
Statement as of 10:21 PM EST on March 04, 2015

... Winter Storm Warning remains in effect from 3 am to 10 PM EST
Thursday...

* precipitation types... wintry mix... then snow... heavy at times.

* Accumulations... snow accumulation of 3 to 6 inches... along
with around a trace of ice.

* Timing... rain changing to snow and sleet late tonight. Snow and
sleet will transition to all snow late Thursday morning. Snow
and sleet may be heavy at times Thursday afternoon.

* Temperatures... in the mid 30s... dropping into the mid 20s.

* Winds... north 10 to 15 mph with gusts to 20 mph.

* Impacts... roads will be snow covered... making travel dangerous.

Precautionary/preparedness actions...

A Winter Storm Warning means significant amounts of snow...
sleet... and ice are expected or occurring. Strong winds are also
possible. This will make travel very hazardous or impossible.



Jackson